Time;durP1;ratioP1;P1;durP2;ratioP2;P2;SDS_P1;SDS_P2;PMS_P1;PMS_P2;Temp;Humidity;BMP_temperature;BMP_pressure;BME280_temperature;BME280_humidity;BME280_pressure;Samples;Min_cycle;Max_cycle;Signal;HPM_P1;HPM_P2
2023/10/01 00:01:07;;;;;;;;;;;18.70;51.60;;;;;;5034994;28;95127;-60
2023/10/01 00:03:32;;;;;;;;;;;18.70;51.60;;;;;;5040370;27;93571;-60
2023/10/01 00:05:58;;;;;;;;;;;18.60;51.70;;;;;;5040721;28;93222;-60
2023/10/01 00:08:23;;;;;;;;;;;18.60;51.70;;;;;;5044246;28;92046;-60
2023/10/01 00:10:49;;;;;;;;;;;18.60;51.60;;;;;;5040334;27;93132;-60
2023/10/01 00:13:15;;;;;;;;;;;18.60;51.60;;;;;;5041239;27;93581;-60
2023/10/01 00:15:41;;;;;;;;;;;18.60;51.60;;;;;;5041618;27;93075;-59
2023/10/01 00:18:07;;;;;;;;;;;18.60;51.70;;;;;;5041085;27;92512;-60
2023/10/01 00:20:35;;;;;;;;;;;18.60;51.70;;;;;;5040969;28;92318;-60
2023/10/01 00:23:02;;;;;;;;;;;18.60;51.60;;;;;;5040942;27;92535;-60
2023/10/01 00:25:28;;;;;;;;;;;18.50;51.60;;;;;;5039723;27;94125;-60
2023/10/01 00:27:55;;;;;;;;;;;18.60;51.70;;;;;;5043757;27;92130;-60
2023/10/01 00:30:21;;;;;;;;;;;18.60;51.70;;;;;;5039875;28;92397;-60
2023/10/01 00:32:47;;;;;;;;;;;18.50;51.60;;;;;;5040616;28;92580;-60
2023/10/01 00:35:13;;;;;;;;;;;18.50;51.60;;;;;;5040720;28;92165;-60
2023/10/01 00:37:38;;;;;;;;;;;18.50;51.60;;;;;;5040376;27;93589;-60
2023/10/01 00:40:05;;;;;;;;;;;18.50;51.60;;;;;;5040521;27;92110;-60
2023/10/01 00:42:34;;;;;;;;;;;18.50;51.70;;;;;;5040612;28;92224;-60
2023/10/01 00:45:01;;;;;;;;;;;18.50;51.70;;;;;;5039660;27;93364;-60
2023/10/01 00:47:30;;;;;;;;;;;18.40;51.70;;;;;;5040695;27;92198;-60
2023/10/01 00:49:57;;;;;;;;;;;18.40;51.70;;;;;;5042418;28;93087;-60
2023/10/01 00:52:23;;;;;;;;;;;18.40;51.70;;;;;;5040265;27;92208;-60
2023/10/01 00:54:51;;;;;;;;;;;18.40;51.70;;;;;;5040483;28;92994;-60
2023/10/01 00:57:16;;;;;;;;;;;18.40;51.70;;;;;;5039585;27;93197;-60
2023/10/01 00:59:43;;;;;;;;;;;18.30;51.70;;;;;;5036201;28;92152;-60
2023/10/01 01:02:09;;;;;;;;;;;18.40;51.80;;;;;;5039718;28;92594;-60
2023/10/01 01:04:42;;;;;;;;;;;18.30;51.70;;;;;;5039895;27;93257;-60
2023/10/01 01:07:20;;;;;;;;;;;18.40;51.70;;;;;;5040522;27;91463;-60
2023/10/01 01:09:49;;;;;;;;;;;18.30;51.70;;;;;;5037740;28;92110;-60
2023/10/01 01:12:15;;;;;;;;;;;18.30;51.70;;;;;;5042144;27;92346;-60
2023/10/01 01:14:44;;;;;;;;;;;18.30;51.70;;;;;;5038302;27;93148;-60
2023/10/01 01:17:13;;;;;;;;;;;18.30;51.70;;;;;;5039303;27;93723;-60
2023/10/01 01:19:39;;;;;;;;;;;18.30;51.70;;;;;;5040002;27;92247;-60
2023/10/01 01:22:05;;;;;;;;;;;18.30;51.70;;;;;;5038605;28;94092;-60
2023/10/01 01:24:30;;;;;;;;;;;18.30;51.80;;;;;;5039565;28;93764;-60
2023/10/01 01:27:00;;;;;;;;;;;18.30;51.80;;;;;;5039639;28;92883;-61
2023/10/01 01:29:33;;;;;;;;;;;18.20;51.80;;;;;;5039847;27;93127;-62
2023/10/01 01:32:07;;;;;;;;;;;18.20;51.80;;;;;;5039346;27;93656;-63
2023/10/01 01:34:35;;;;;;;;;;;18.20;51.80;;;;;;5043057;27;92026;-63
2023/10/01 01:37:06;;;;;;;;;;;18.20;51.80;;;;;;5035432;28;93432;-62
2023/10/01 01:39:51;;;;;;;;;;;18.20;51.80;;;;;;5039129;27;93094;-62
2023/10/01 01:42:21;;;;;;;;;;;18.20;51.80;;;;;;5036018;28;93828;-62
2023/10/01 01:45:15;;;;;;;;;;;18.20;51.80;;;;;;5039147;27;93190;-63
2023/10/01 01:47:39;;;;;;;;;;;18.10;51.70;;;;;;5036956;28;94710;-63
2023/10/01 01:50:17;;;;;;;;;;;18.10;51.80;;;;;;5039413;28;93377;-63
2023/10/01 01:52:42;;;;;;;;;;;18.10;51.80;;;;;;5036326;28;93199;-63
2023/10/01 01:55:23;;;;;;;;;;;18.10;51.80;;;;;;5039688;28;92289;-63
2023/10/01 01:58:04;;;;;;;;;;;18.10;51.90;;;;;;5042401;27;93487;-63
2023/10/01 02:00:31;;;;;;;;;;;18.10;51.90;;;;;;5039191;28;92262;-63
2023/10/01 02:03:02;;;;;;;;;;;18.10;51.80;;;;;;5039126;28;92403;-63
2023/10/01 02:05:28;;;;;;;;;;;18.00;51.80;;;;;;5035134;28;94507;-63
2023/10/01 02:07:54;;;;;;;;;;;18.00;51.80;;;;;;5039507;28;92166;-63
2023/10/01 02:10:20;;;;;;;;;;;18.00;51.80;;;;;;5039444;27;92479;-63
2023/10/01 02:12:47;;;;;;;;;;;18.00;51.80;;;;;;5038362;27;93376;-63
2023/10/01 02:15:13;;;;;;;;;;;18.00;51.90;;;;;;5038913;28;92190;-63
2023/10/01 02:17:39;;;;;;;;;;;18.00;51.90;;;;;;5041411;28;92577;-63
2023/10/01 02:20:27;;;;;;;;;;;17.90;51.80;;;;;;5039315;28;92208;-63
2023/10/01 02:22:53;;;;;;;;;;;18.00;51.80;;;;;;5036180;28;91746;-63
2023/10/01 02:25:36;;;;;;;;;;;18.00;51.90;;;;;;5038404;28;93623;-63
2023/10/01 02:28:14;;;;;;;;;;;18.00;51.90;;;;;;5038789;27;92587;-63
2023/10/01 02:30:44;;;;;;;;;;;18.00;51.90;;;;;;5037940;27;93243;-63
2023/10/01 02:33:17;;;;;;;;;;;17.90;51.80;;;;;;5038784;28;93257;-63
2023/10/01 02:35:46;;;;;;;;;;;17.90;51.80;;;;;;5036073;28;92144;-63
2023/10/01 02:40:57;;;;;;;;;;;17.90;51.90;;;;;;5038783;28;92264;-63
2023/10/01 02:43:24;;;;;;;;;;;17.90;51.90;;;;;;5038459;27;93413;-63
2023/10/01 02:45:50;;;;;;;;;;;17.80;51.80;;;;;;5038754;27;93608;-63
2023/10/01 02:48:16;;;;;;;;;;;17.80;51.90;;;;;;5039486;27;91378;-63
2023/10/01 02:50:48;;;;;;;;;;;17.80;51.80;;;;;;5038782;28;92173;-63
2023/10/01 02:53:14;;;;;;;;;;;17.80;51.80;;;;;;5038373;27;93394;-63
2023/10/01 02:55:44;;;;;;;;;;;17.80;51.80;;;;;;5038138;28;93657;-63
2023/10/01 02:58:28;;;;;;;;;;;17.80;51.80;;;;;;5038434;28;93464;-63
2023/10/01 03:00:54;;;;;;;;;;;17.70;51.90;;;;;;5035923;28;93588;-62
2023/10/01 03:03:31;;;;;;;;;;;17.70;51.80;;;;;;5041517;28;92186;-63
2023/10/01 03:05:57;;;;;;;;;;;17.70;51.90;;;;;;5035171;28;93619;-63
2023/10/01 03:09:04;;;;;;;;;;;17.80;51.90;;;;;;5038547;27;92205;-63
2023/10/01 03:11:11;;;;;;;;;;;17.70;51.80;;;;;;5032016;28;92084;-62
2023/10/01 03:13:38;;;;;;;;;;;17.70;51.80;;;;;;5038073;27;92835;-63
2023/10/01 03:18:54;;;;;;;;;;;17.70;51.90;;;;;;5036518;28;92087;-63
2023/10/01 03:21:43;;;;;;;;;;;17.70;51.90;;;;;;5037539;27;93265;-63
2023/10/01 03:24:08;;;;;;;;;;;17.60;51.90;;;;;;5036090;28;93844;-63
2023/10/01 03:26:34;;;;;;;;;;;17.60;51.90;;;;;;5040765;28;92958;-63
2023/10/01 03:29:17;;;;;;;;;;;17.60;51.90;;;;;;5038102;27;92196;-63
2023/10/01 03:31:46;;;;;;;;;;;17.60;52.00;;;;;;5038027;28;92894;-63
2023/10/01 03:34:28;;;;;;;;;;;17.60;51.90;;;;;;5037631;27;94068;-63
2023/10/01 03:37:00;;;;;;;;;;;17.60;51.90;;;;;;5038542;27;92188;-63
2023/10/01 03:39:26;;;;;;;;;;;17.60;51.90;;;;;;5038443;28;92495;-63
2023/10/01 03:42:10;;;;;;;;;;;17.60;51.90;;;;;;5041349;27;93228;-63
2023/10/01 03:44:59;;;;;;;;;;;17.50;51.90;;;;;;5039078;27;92089;-63
2023/10/01 03:47:27;;;;;;;;;;;17.50;51.90;;;;;;5041153;27;93047;-62
2023/10/01 03:49:57;;;;;;;;;;;17.50;51.90;;;;;;5044017;27;93636;-63
2023/10/01 03:52:28;;;;;;;;;;;17.50;51.90;;;;;;5041695;27;92595;-63
2023/10/01 03:57:23;;;;;;;;;;;17.50;51.90;;;;;;5037849;28;92145;-63
2023/10/01 03:59:52;;;;;;;;;;;17.50;51.90;;;;;;5040946;27;92922;-63
2023/10/01 04:02:28;;;;;;;;;;;17.50;52.60;;;;;;5039860;28;93616;-63
2023/10/01 04:04:57;;;;;;;;;;;17.50;51.90;;;;;;5041924;28;91360;-63
2023/10/01 04:07:26;;;;;;;;;;;17.40;51.90;;;;;;5041112;28;92170;-61
2023/10/01 04:09:54;;;;;;;;;;;17.40;52.60;;;;;;5040750;28;93354;-62
2023/10/01 04:12:20;;;;;;;;;;;17.40;51.90;;;;;;5043543;28;93247;-62
2023/10/01 04:14:49;;;;;;;;;;;17.40;52.00;;;;;;5040197;27;93149;-63
2023/10/01 04:17:18;;;;;;;;;;;17.40;51.90;;;;;;5036936;28;92167;-63
2023/10/01 04:19:56;;;;;;;;;;;17.40;52.00;;;;;;5041231;28;92643;-63
2023/10/01 04:22:25;;;;;;;;;;;17.40;52.00;;;;;;5040524;28;93262;-63
2023/10/01 04:25:00;;;;;;;;;;;17.40;52.00;;;;;;5038965;27;92279;-62
2023/10/01 04:27:34;;;;;;;;;;;17.30;51.90;;;;;;5036353;27;92635;-63
2023/10/01 04:30:01;;;;;;;;;;;17.40;51.90;;;;;;5037772;28;92430;-63
2023/10/01 04:32:27;;;;;;;;;;;17.30;51.90;;;;;;5045828;27;92486;-63
2023/10/01 04:34:58;;;;;;;;;;;17.30;51.90;;;;;;5037707;27;92469;-62
2023/10/01 04:37:41;;;;;;;;;;;17.30;51.90;;;;;;5036860;27;93836;-62
2023/10/01 04:40:31;;;;;;;;;;;17.30;52.00;;;;;;5038909;28;93366;-62
2023/10/01 04:42:52;;;;;;;;;;;17.20;52.00;;;;;;5036442;27;93929;-62
2023/10/01 04:45:24;;;;;;;;;;;17.20;52.00;;;;;;5039018;27;92224;-62
2023/10/01 04:47:55;;;;;;;;;;;17.20;51.90;;;;;;5040300;27;92811;-63
2023/10/01 04:50:29;;;;;;;;;;;17.20;51.90;;;;;;5036288;28;93324;-62
2023/10/01 04:52:59;;;;;;;;;;;17.20;51.90;;;;;;5037285;27;92818;-62
2023/10/01 04:55:28;;;;;;;;;;;17.20;51.90;;;;;;5042009;27;92551;-63
2023/10/01 04:57:57;;;;;;;;;;;17.20;52.00;;;;;;5040399;28;92036;-62
2023/10/01 05:00:23;;;;;;;;;;;17.20;52.00;;;;;;5039431;27;92329;-62
2023/10/01 05:02:50;;;;;;;;;;;17.20;52.00;;;;;;5036524;27;94228;-63
2023/10/01 05:05:25;;;;;;;;;;;17.20;52.00;;;;;;5034201;27;92266;-63
2023/10/01 05:07:56;;;;;;;;;;;17.10;52.70;;;;;;5037529;28;92387;-62
2023/10/01 05:10:22;;;;;;;;;;;17.10;52.00;;;;;;5038257;27;92674;-62
2023/10/01 05:12:54;;;;;;;;;;;17.10;52.00;;;;;;5034946;27;92227;-62
2023/10/01 05:15:34;;;;;;;;;;;17.10;52.00;;;;;;5036802;28;92602;-63
2023/10/01 05:18:01;;;;;;;;;;;17.10;52.10;;;;;;5041443;27;93686;-63
2023/10/01 05:20:26;;;;;;;;;;;17.10;52.00;;;;;;5039182;27;92590;-63
2023/10/01 05:22:55;;;;;;;;;;;17.10;52.00;;;;;;5037542;27;93596;-62
2023/10/01 05:25:21;;;;;;;;;;;17.00;52.00;;;;;;5040025;27;92168;-63
2023/10/01 05:27:46;;;;;;;;;;;17.00;51.50;;;;;;5038621;27;93128;-63
2023/10/01 05:30:58;;;;;;;;;;;17.10;52.10;;;;;;5037753;27;93216;-63
2023/10/01 05:33:05;;;;;;;;;;;17.00;52.00;;;;;;5032618;28;93047;-63
2023/10/01 05:35:43;;;;;;;;;;;17.00;52.00;;;;;;5038503;28;96323;-63
2023/10/01 05:38:10;;;;;;;;;;;17.00;52.00;;;;;;5035697;28;93358;-62
2023/10/01 05:40:37;;;;;;;;;;;17.00;52.10;;;;;;5040623;27;93964;-62
2023/10/01 05:43:13;;;;;;;;;;;17.00;52.00;;;;;;5038257;27;93337;-62
2023/10/01 05:45:41;;;;;;;;;;;17.00;52.00;;;;;;5037428;28;91367;-62
2023/10/01 05:48:18;;;;;;;;;;;17.00;52.10;;;;;;5037428;27;93106;-63
2023/10/01 05:50:44;;;;;;;;;;;17.00;52.00;;;;;;5033718;27;93681;-63
2023/10/01 05:53:10;;;;;;;;;;;17.00;52.00;;;;;;5039203;27;93068;-63
2023/10/01 05:55:37;;;;;;;;;;;17.00;52.00;;;;;;5039480;27;93940;-63
2023/10/01 05:58:21;;;;;;;;;;;17.00;52.00;;;;;;5036927;27;93799;-63
2023/10/01 06:00:56;;;;;;;;;;;17.00;52.10;;;;;;5034886;27;92553;-62
2023/10/01 06:03:23;;;;;;;;;;;17.00;52.10;;;;;;5041318;27;92787;-62
2023/10/01 06:05:58;;;;;;;;;;;17.00;52.10;;;;;;5037795;27;92104;-62
2023/10/01 06:08:32;;;;;;;;;;;17.00;52.20;;;;;;5035082;27;92526;-63
2023/10/01 06:11:13;;;;;;;;;;;17.00;52.20;;;;;;5035430;27;91609;-62
2023/10/01 06:13:54;;;;;;;;;;;17.00;52.20;;;;;;5037134;28;92522;-63
2023/10/01 06:16:24;;;;;;;;;;;17.00;52.20;;;;;;5035061;27;92607;-62
2023/10/01 06:18:56;;;;;;;;;;;16.90;52.20;;;;;;5035839;27;94318;-62
2023/10/01 06:21:26;;;;;;;;;;;16.90;52.20;;;;;;5034642;27;92332;-62
2023/10/01 06:23:53;;;;;;;;;;;17.00;52.20;;;;;;5033864;28;92540;-62
2023/10/01 06:26:20;;;;;;;;;;;16.90;52.20;;;;;;5039584;27;93849;-62
2023/10/01 06:28:46;;;;;;;;;;;16.90;52.20;;;;;;5035920;28;92975;-62
2023/10/01 06:31:11;;;;;;;;;;;16.90;52.30;;;;;;5038587;28;93590;-62
2023/10/01 06:33:38;;;;;;;;;;;16.90;52.20;;;;;;5037891;27;92966;-62
2023/10/01 06:36:16;;;;;;;;;;;16.90;52.30;;;;;;5040139;27;93248;-62
2023/10/01 06:38:47;;;;;;;;;;;17.00;52.30;;;;;;5037174;27;93819;-62
2023/10/01 06:41:16;;;;;;;;;;;16.90;52.30;;;;;;5038547;27;93181;-62
2023/10/01 06:43:54;;;;;;;;;;;16.90;52.40;;;;;;5036286;27;93075;-62
2023/10/01 06:46:22;;;;;;;;;;;16.90;52.40;;;;;;5036496;27;93242;-62
2023/10/01 06:48:51;;;;;;;;;;;16.90;52.40;;;;;;5037991;28;93583;-63
2023/10/01 06:51:21;;;;;;;;;;;16.90;52.60;;;;;;5034507;28;93177;-62
2023/10/01 06:53:47;;;;;;;;;;;16.90;52.50;;;;;;5037288;27;92223;-62
2023/10/01 06:56:21;;;;;;;;;;;16.90;52.60;;;;;;5035438;27;95456;-62
2023/10/01 06:59:27;;;;;;;;;;;16.90;52.70;;;;;;5038225;28;93262;-62
2023/10/01 07:01:42;;;;;;;;;;;16.90;52.60;;;;;;5031018;27;93483;-62
2023/10/01 07:04:11;;;;;;;;;;;16.90;52.60;;;;;;5036164;27;92124;-62
2023/10/01 07:06:38;;;;;;;;;;;16.90;52.70;;;;;;5033194;27;92413;-62
2023/10/01 07:09:06;;;;;;;;;;;16.90;52.70;;;;;;5040978;27;93063;-62
2023/10/01 07:11:34;;;;;;;;;;;16.90;52.80;;;;;;5036948;27;93073;-62
2023/10/01 07:14:03;;;;;;;;;;;16.90;52.80;;;;;;5039459;27;92172;-62
2023/10/01 07:16:35;;;;;;;;;;;16.90;52.80;;;;;;5038702;27;92646;-62
2023/10/01 07:19:03;;;;;;;;;;;16.90;52.80;;;;;;5041020;27;93275;-62
2023/10/01 07:21:28;;;;;;;;;;;16.90;52.70;;;;;;5037799;27;92141;-62
2023/10/01 07:23:54;;;;;;;;;;;16.90;52.80;;;;;;5039953;27;93013;-62
2023/10/01 07:26:19;;;;;;;;;;;16.80;52.80;;;;;;5041371;28;92542;-62
2023/10/01 07:28:55;;;;;;;;;;;16.80;52.90;;;;;;5041632;28;92101;-63
2023/10/01 07:31:24;;;;;;;;;;;16.80;52.90;;;;;;5038874;27;92915;-62
2023/10/01 07:33:53;;;;;;;;;;;16.80;53.50;;;;;;5036513;27;93246;-62
2023/10/01 07:36:19;;;;;;;;;;;16.90;52.90;;;;;;5041364;27;93575;-62
2023/10/01 07:38:48;;;;;;;;;;;16.80;52.90;;;;;;5039741;27;92437;-62
2023/10/01 07:41:17;;;;;;;;;;;16.80;53.00;;;;;;5038762;27;92178;-63
2023/10/01 07:43:43;;;;;;;;;;;16.80;53.10;;;;;;5035496;27;92593;-62
2023/10/01 07:46:08;;;;;;;;;;;16.80;53.00;;;;;;5041605;28;92723;-62
2023/10/01 07:48:35;;;;;;;;;;;16.80;53.10;;;;;;5040400;27;92126;-62
2023/10/01 07:51:03;;;;;;;;;;;16.80;53.10;;;;;;5039347;27;92840;-62
2023/10/01 07:53:42;;;;;;;;;;;16.80;53.10;;;;;;5038303;28;95218;-62
2023/10/01 07:56:15;;;;;;;;;;;16.80;53.10;;;;;;5039254;28;92648;-61
2023/10/01 07:58:47;;;;;;;;;;;16.80;53.20;;;;;;5037903;27;94443;-62
2023/10/01 08:03:57;;;;;;;;;;;16.80;53.20;;;;;;5041145;28;92325;-62
2023/10/01 08:06:41;;;;;;;;;;;16.80;53.30;;;;;;5039569;27;93194;-62
2023/10/01 08:09:12;;;;;;;;;;;16.80;53.30;;;;;;5038640;27;93943;-62
2023/10/01 08:14:26;;;;;;;;;;;16.80;53.40;;;;;;5036805;28;92334;-62
2023/10/01 08:16:53;;;;;;;;;;;16.80;53.40;;;;;;5043889;27;91705;-62
2023/10/01 08:19:22;;;;;;;;;;;16.80;53.40;;;;;;5037777;27;93236;-62
2023/10/01 08:21:50;;;;;;;;;;;16.80;53.50;;;;;;5040887;27;92096;-62
2023/10/01 08:24:20;;;;;;;;;;;16.90;53.60;;;;;;5038728;27;93085;-62
2023/10/01 08:26:58;;;;;;;;;;;16.90;53.50;;;;;;5040932;27;93340;-62
2023/10/01 08:32:11;;;;;;;;;;;16.90;53.80;;;;;;5040132;28;92055;-62
2023/10/01 08:37:24;;;;;;;;;;;16.90;53.90;;;;;;5038668;27;92262;-62
2023/10/01 08:39:53;;;;;;;;;;;16.90;54.00;;;;;;5043128;27;92736;-62
2023/10/01 08:42:19;;;;;;;;;;;16.90;54.20;;;;;;5037644;28;91563;-62
2023/10/01 08:44:50;;;;;;;;;;;16.90;54.20;;;;;;5038959;27;92265;-62
2023/10/01 08:47:31;;;;;;;;;;;16.80;54.50;;;;;;5034856;27;92329;-62
2023/10/01 08:52:57;;;;;;;;;;;16.90;54.70;;;;;;5034443;27;93310;-62
2023/10/01 09:00:49;;;;;;;;;;;16.90;55.10;;;;;;5036674;28;92333;-62
2023/10/01 09:03:28;;;;;;;;;;;17.00;55.10;;;;;;5038515;27;92434;-62
2023/10/01 09:06:04;;;;;;;;;;;17.00;55.00;;;;;;5038664;27;92572;-62
2023/10/01 09:08:31;;;;;;;;;;;17.00;55.10;;;;;;5040542;28;92607;-62
2023/10/01 09:11:00;;;;;;;;;;;17.00;55.20;;;;;;5039451;28;92181;-62
2023/10/01 09:13:26;;;;;;;;;;;17.00;55.10;;;;;;5041379;27;92567;-61
2023/10/01 09:15:55;;;;;;;;;;;17.00;55.40;;;;;;5035072;27;94175;-62
2023/10/01 09:18:25;;;;;;;;;;;17.00;55.10;;;;;;5040012;28;92125;-62
2023/10/01 09:21:06;;;;;;;;;;;17.00;55.10;;;;;;5038211;27;92529;-62
2023/10/01 09:23:56;;;;;;;;;;;17.00;55.00;;;;;;5037212;27;93867;-61
2023/10/01 09:26:42;;;;;;;;;;;17.00;55.40;;;;;;5039312;28;92766;-62
2023/10/01 09:29:24;;;;;;;;;;;17.00;55.40;;;;;;5036658;28;93514;-61
2023/10/01 09:31:56;;;;;;;;;;;17.10;55.30;;;;;;5040214;27;92527;-62
2023/10/01 09:34:33;;;;;;;;;;;17.10;55.10;;;;;;5033683;27;92493;-62
2023/10/01 09:37:03;;;;;;;;;;;17.00;55.40;;;;;;5039217;27;93300;-62
2023/10/01 09:39:41;;;;;;;;;;;17.10;55.40;;;;;;5035417;27;92907;-62
2023/10/01 09:42:25;;;;;;;;;;;17.10;55.50;;;;;;5037075;27;93055;-62
2023/10/01 09:44:54;;;;;;;;;;;17.10;55.60;;;;;;5039139;27;93163;-62
2023/10/01 09:47:24;;;;;;;;;;;17.10;55.70;;;;;;5042364;27;92112;-62
2023/10/01 09:49:51;;;;;;;;;;;17.20;55.70;;;;;;5039124;27;93790;-62
2023/10/01 09:52:26;;;;;;;;;;;17.20;55.60;;;;;;5034698;27;92925;-62
2023/10/01 09:55:03;;;;;;;;;;;17.20;55.50;;;;;;5039810;27;92908;-62
2023/10/01 09:57:34;;;;;;;;;;;17.10;55.50;;;;;;5034973;27;93511;-62
2023/10/01 10:00:17;;;;;;;;;;;17.10;55.70;;;;;;5040067;27;91503;-62
2023/10/01 10:02:51;;;;;;;;;;;17.20;55.80;;;;;;5036273;28;92131;-62
2023/10/01 10:05:26;;;;;;;;;;;17.20;55.70;;;;;;5038810;28;93210;-62
2023/10/01 10:08:13;;;;;;;;;;;17.20;55.60;;;;;;5036459;27;94868;-62
2023/10/01 10:10:48;;;;;;;;;;;17.30;55.70;;;;;;5034877;27;93320;-62
2023/10/01 10:13:36;;;;;;;;;;;17.30;55.50;;;;;;5039240;27;92603;-62
2023/10/01 10:16:31;;;;;;;;;;;17.30;55.40;;;;;;5036000;27;92521;-61
2023/10/01 10:19:05;;;;;;;;;;;17.30;55.40;;;;;;5035560;27;93382;-62
2023/10/01 10:21:49;;;;;;;;;;;17.30;55.50;;;;;;5037918;27;92597;-62
2023/10/01 10:24:21;;;;;;;;;;;17.30;55.50;;;;;;5038971;28;92883;-62
2023/10/01 10:27:00;;;;;;;;;;;17.40;55.50;;;;;;5036372;27;92666;-62
2023/10/01 10:29:57;;;;;;;;;;;17.40;55.50;;;;;;5034569;27;92898;-62
2023/10/01 10:32:26;;;;;;;;;;;17.40;55.40;;;;;;5031217;28;92630;-62
2023/10/01 10:35:03;;;;;;;;;;;17.40;55.30;;;;;;5040591;27;94171;-62
2023/10/01 10:40:22;;;;;;;;;;;17.40;55.60;;;;;;5034407;28;92930;-62
2023/10/01 10:43:00;;;;;;;;;;;17.50;55.50;;;;;;5035856;28;92132;-62
2023/10/01 10:45:45;;;;;;;;;;;17.50;55.60;;;;;;5036755;27;92380;-62
2023/10/01 10:48:14;;;;;;;;;;;17.50;55.30;;;;;;5032452;27;93183;-62
2023/10/01 10:50:48;;;;;;;;;;;17.50;55.20;;;;;;5038339;28;92170;-62
2023/10/01 10:53:19;;;;;;;;;;;17.60;55.20;;;;;;5035697;27;92501;-62
2023/10/01 10:55:55;;;;;;;;;;;17.60;55.40;;;;;;5035869;27;93182;-62
2023/10/01 10:58:24;;;;;;;;;;;17.60;55.60;;;;;;5034472;28;92120;-62
2023/10/01 11:00:50;;;;;;;;;;;17.60;55.60;;;;;;5037393;28;94312;-62
2023/10/01 11:03:38;;;;;;;;;;;17.60;55.80;;;;;;5036090;27;92222;-62
2023/10/01 11:06:18;;;;;;;;;;;17.60;55.80;;;;;;5034290;27;92541;-63
2023/10/01 11:08:50;;;;;;;;;;;17.60;55.70;;;;;;5034877;28;93078;-62
2023/10/01 11:11:20;;;;;;;;;;;17.70;55.70;;;;;;5038881;27;92046;-62
2023/10/01 11:13:46;;;;;;;;;;;17.70;55.60;;;;;;5037710;27;94428;-62
2023/10/01 11:16:14;;;;;;;;;;;17.70;55.50;;;;;;5033996;27;93251;-62
2023/10/01 11:18:41;;;;;;;;;;;17.70;55.70;;;;;;5037861;28;91378;-63
2023/10/01 11:21:11;;;;;;;;;;;17.70;55.40;;;;;;5036901;27;93648;-62
2023/10/01 11:23:37;;;;;;;;;;;17.70;55.50;;;;;;5036577;27;92265;-61
2023/10/01 11:26:06;;;;;;;;;;;17.80;55.50;;;;;;5033842;27;93255;-62
2023/10/01 11:28:41;;;;;;;;;;;17.80;55.40;;;;;;5037787;27;93483;-62
2023/10/01 11:31:22;;;;;;;;;;;17.80;55.50;;;;;;5037824;27;92398;-62
2023/10/01 11:33:57;;;;;;;;;;;17.80;55.80;;;;;;5034055;27;92641;-62
2023/10/01 11:36:23;;;;;;;;;;;17.80;56.00;;;;;;5036212;27;93200;-62
2023/10/01 11:38:50;;;;;;;;;;;17.80;56.10;;;;;;5038293;28;92686;-62
2023/10/01 11:41:18;;;;;;;;;;;17.90;56.10;;;;;;5039528;28;92974;-62
2023/10/01 11:44:00;;;;;;;;;;;17.90;56.00;;;;;;5035740;27;91693;-62
2023/10/01 11:46:35;;;;;;;;;;;17.90;55.80;;;;;;5038189;27;92075;-62
2023/10/01 11:49:06;;;;;;;;;;;17.90;55.80;;;;;;5034806;28;93233;-62
2023/10/01 11:51:36;;;;;;;;;;;18.00;55.80;;;;;;5032503;27;93868;-62
2023/10/01 11:57:08;;;;;;;;;;;18.00;55.90;;;;;;5027769;27;92944;-62
2023/10/01 11:59:37;;;;;;;;;;;18.00;55.90;;;;;;5039177;27;92372;-62
2023/10/01 12:02:21;;;;;;;;;;;17.90;55.80;;;;;;5038285;27;92641;-62
2023/10/01 12:04:56;;;;;;;;;;;18.00;56.00;;;;;;5042605;28;93216;-62
2023/10/01 12:07:23;;;;;;;;;;;18.00;55.90;;;;;;5039242;27;93301;-62
2023/10/01 12:09:49;;;;;;;;;;;18.10;56.50;;;;;;5040960;27;92786;-62
2023/10/01 12:12:16;;;;;;;;;;;18.00;55.90;;;;;;5038803;27;93154;-62
2023/10/01 12:14:54;;;;;;;;;;;18.00;55.90;;;;;;5041381;27;92653;-62
2023/10/01 12:17:24;;;;;;;;;;;18.10;56.10;;;;;;5035970;27;94145;-61
2023/10/01 12:19:57;;;;;;;;;;;18.10;56.20;;;;;;5038889;27;92160;-61
2023/10/01 12:22:26;;;;;;;;;;;18.10;56.20;;;;;;5036222;27;92577;-62
2023/10/01 12:24:58;;;;;;;;;;;18.10;56.10;;;;;;5040406;28;93559;-62
2023/10/01 12:30:31;;;;;;;;;;;18.20;56.10;;;;;;5038642;27;92254;-63
2023/10/01 12:32:57;;;;;;;;;;;18.20;56.10;;;;;;5038448;28;92142;-62
2023/10/01 12:35:28;;;;;;;;;;;18.20;56.00;;;;;;5041328;27;92434;-62
2023/10/01 12:38:40;;;;;;;;;;;18.20;56.10;;;;;;5036410;27;93992;-62
2023/10/01 12:40:52;;;;;;;;;;;18.20;56.10;;;;;;5030432;27;92793;-62
2023/10/01 12:43:36;;;;;;;;;;;18.20;55.90;;;;;;5037006;28;93081;-62
2023/10/01 12:46:08;;;;;;;;;;;18.20;56.60;;;;;;5038491;27;93394;-62
2023/10/01 12:48:34;;;;;;;;;;;18.20;56.00;;;;;;5038802;27;92138;-62
2023/10/01 12:51:00;;;;;;;;;;;18.30;55.90;;;;;;5039791;28;92594;-63
2023/10/01 12:53:34;;;;;;;;;;;18.30;56.90;;;;;;5040506;28;92259;-63
2023/10/01 12:56:03;;;;;;;;;;;18.30;57.50;;;;;;5038609;28;92889;-56
2023/10/01 12:58:36;;;;;;;;;;;18.30;57.40;;;;;;5038282;27;94044;-62
2023/10/01 13:01:02;;;;;;;;;;;18.40;58.50;;;;;;5039228;28;92200;-63
2023/10/01 13:03:29;;;;;;;;;;;18.40;58.10;;;;;;5039983;28;92229;-61
2023/10/01 13:05:55;;;;;;;;;;;18.40;58.60;;;;;;5035709;27;94115;-64
2023/10/01 13:08:27;;;;;;;;;;;18.50;58.10;;;;;;5037195;27;93164;-61
2023/10/01 13:10:54;;;;;;;;;;;18.50;57.50;;;;;;5041638;27;93621;-62
2023/10/01 13:13:20;;;;;;;;;;;18.50;57.40;;;;;;5039425;27;92181;-62
2023/10/01 13:15:54;;;;;;;;;;;18.50;57.00;;;;;;5042755;27;92900;-61
2023/10/01 13:18:22;;;;;;;;;;;18.50;57.10;;;;;;5037695;27;93451;-61
2023/10/01 13:23:28;;;;;;;;;;;18.60;57.90;;;;;;5034398;27;92773;-52
2023/10/01 13:26:05;;;;;;;;;;;18.70;57.80;;;;;;5037755;27;94108;-58
2023/10/01 13:28:45;;;;;;;;;;;18.80;57.90;;;;;;5040074;27;92529;-63
2023/10/01 13:31:35;;;;;;;;;;;18.80;58.20;;;;;;5037364;27;96400;-66
2023/10/01 13:34:06;;;;;;;;;;;18.90;57.80;;;;;;5041685;27;94372;-66
2023/10/01 13:36:47;;;;;;;;;;;18.80;57.60;;;;;;5036758;28;93496;-65
2023/10/01 13:40:10;;;;;;;;;;;18.80;57.80;;;;;;5036954;28;93538;-67
2023/10/01 14:12:12;;;;;;;;;;;19.30;58.20;;;;;;5035723;27;92513;-60
2023/10/01 14:14:37;;;;;;;;;;;19.30;58.00;;;;;;5038758;28;93095;-61
2023/10/01 14:17:13;;;;;;;;;;;19.30;58.10;;;;;;5037820;27;93227;-62
2023/10/01 14:19:41;;;;;;;;;;;19.30;58.00;;;;;;5035931;27;91401;-62
2023/10/01 14:22:19;;;;;;;;;;;19.40;58.00;;;;;;5037593;27;92082;-62
2023/10/01 14:24:46;;;;;;;;;;;19.40;57.80;;;;;;5037830;28;92177;-62
2023/10/01 14:27:29;;;;;;;;;;;19.40;57.50;;;;;;5036281;27;93125;-59
2023/10/01 14:30:02;;;;;;;;;;;19.50;57.70;;;;;;5036122;27;92972;-60
2023/10/01 14:32:36;;;;;;;;;;;19.50;57.50;;;;;;5037538;28;92093;-60
2023/10/01 14:35:14;;;;;;;;;;;19.50;57.60;;;;;;5038274;27;92446;-60
2023/10/01 14:37:55;;;;;;;;;;;19.40;57.60;;;;;;5035710;27;92502;-59
2023/10/01 14:40:25;;;;;;;;;;;19.40;57.90;;;;;;5038705;27;92262;-58
2023/10/01 14:42:58;;;;;;;;;;;19.40;58.10;;;;;;5038334;27;92627;-59
2023/10/01 14:45:33;;;;;;;;;;;19.40;58.20;;;;;;5040306;27;92259;-59
2023/10/01 14:48:06;;;;;;;;;;;19.30;58.90;;;;;;5037719;27;92190;-54
2023/10/01 14:50:41;;;;;;;;;;;19.40;58.60;;;;;;5037054;28;94451;-56
2023/10/01 14:53:07;;;;;;;;;;;19.40;58.70;;;;;;5036940;28;93087;-53
2023/10/01 14:55:40;;;;;;;;;;;19.50;58.80;;;;;;5036300;27;93887;-58
2023/10/01 14:58:12;;;;;;;;;;;19.50;58.50;;;;;;5035514;27;93237;-58
2023/10/01 15:00:54;;;;;;;;;;;19.40;58.60;;;;;;5037196;28;92252;-58
2023/10/01 15:03:22;;;;;;;;;;;19.30;59.20;;;;;;5036197;27;92582;-57
2023/10/01 15:05:48;;;;;;;;;;;19.40;58.90;;;;;;5036420;27;93322;-55
2023/10/01 15:08:15;;;;;;;;;;;19.40;58.90;;;;;;5039084;28;92440;-53
2023/10/01 15:10:49;;;;;;;;;;;19.40;58.90;;;;;;5038084;27;92438;-51
2023/10/01 15:13:33;;;;;;;;;;;19.40;58.90;;;;;;5035848;27;92275;-49
2023/10/01 15:16:02;;;;;;;;;;;19.50;58.80;;;;;;5036734;27;94702;-51
2023/10/01 15:18:28;;;;;;;;;;;19.40;58.90;;;;;;5035811;28;94199;-60
2023/10/01 15:20:54;;;;;;;;;;;19.50;59.00;;;;;;5037822;27;92154;-59
2023/10/01 15:23:20;;;;;;;;;;;19.50;58.70;;;;;;5037232;27;93149;-60
2023/10/01 15:25:46;;;;;;;;;;;19.50;58.70;;;;;;5035765;27;93241;-55
2023/10/01 15:28:15;;;;;;;;;;;19.50;59.00;;;;;;5040892;27;92194;-54
2023/10/01 15:30:48;;;;;;;;;;;19.50;58.90;;;;;;5036569;27;92958;-53
2023/10/01 15:33:17;;;;;;;;;;;19.50;59.00;;;;;;5035704;27;93231;-54
2023/10/01 15:35:51;;;;;;;;;;;19.50;59.10;;;;;;5038706;27;93857;-46
2023/10/01 15:38:33;;;;;;;;;;;19.40;59.50;;;;;;5040821;28;93654;-53
2023/10/01 15:40:59;;;;;;;;;;;19.50;59.10;;;;;;5040122;27;92508;-53
2023/10/01 15:43:26;;;;;;;;;;;19.50;59.30;;;;;;5037796;27;93923;-49
2023/10/01 15:45:52;;;;;;;;;;;19.50;59.40;;;;;;5038878;28;93211;-57
2023/10/01 15:48:20;;;;;;;;;;;19.50;59.50;;;;;;5040693;27;92206;-56
2023/10/01 15:50:48;;;;;;;;;;;19.50;59.50;;;;;;5041905;27;92575;-53